Latest Weather Observations for Laverton

IDV60901

Issued at 8:31 pm EST Friday 4 September 2015 (issued every 10 minutes, with the page automatically refreshed every 10 minutes)

About weather observations | Map of Melbourne area stations | Latest observations for Melbourne area | Other Formats
Station Details ID: 087031 Name: LAVERTON RAAF Lat: -37.86 Lon: 144.76 Height: 20.1 m
Data from the previous 72 hours. | See also: Recent months at Laverton
Date/Time
EST
Tmp

°C
App
Tmp
°C
Dew
Point
°C
Rel
Hum
%
Delta-T

°C
Wind Press
QNH
hPa
Press
MSL
hPa
Rain
since
9 am
mm
Dir
 
Spd
km/h
Gust
km/h
Spd
kts
Gust
kts
04/08:30pm 11.0 8.9 6.7 75 2.0 SSW 7 9 4 5 1025.4 1025.4 0.0
04/08:00pm 11.0 8.9 6.6 74 2.1 S 7 9 4 5 1025.3 1025.3 0.0
04/07:30pm 10.9 8.8 6.5 74 2.1 SSE 7 11 4 6 1025.2 1025.2 0.0
04/07:00pm 11.1 8.6 6.5 73 2.2 SSE 9 13 5 7 1025.1 1025.1 0.0
04/06:30pm 11.0 8.0 6.0 71 2.3 SE 11 15 6 8 1024.9 1024.9 0.0
04/06:00pm 11.1 8.1 6.0 71 2.4 SE 11 17 6 9 1024.7 1024.7 0.0
04/05:30pm 11.2 8.0 5.3 67 2.7 SE 11 15 6 8 1024.6 1024.6 0.0
04/05:00pm 11.5 7.9 4.9 64 3.0 SE 13 17 7 9 1024.3 1024.3 0.0
04/04:30pm 11.8 8.1 4.5 61 3.3 SE 13 17 7 9 1024.1 1024.1 0.0
04/04:00pm 12.4 8.4 4.9 60 3.4 SSE 15 19 8 10 1024.1 1024.1 0.0
04/03:30pm 13.0 8.5 4.4 56 3.9 SSW 17 24 9 13 1024.1 1024.1 0.0
04/03:00pm 13.0 8.8 3.9 54 4.1 SSW 15 20 8 11 1024.0 1024.0 0.0
04/02:30pm 13.4 8.8 3.8 52 4.3 S 17 24 9 13 1023.9 1023.9 0.0
04/02:00pm 13.2 8.8 4.6 56 3.9 SSW 17 22 9 12 1024.2 1024.2 0.0
04/01:30pm 12.7 8.3 4.7 58 3.7 S 17 22 9 12 1024.5 1024.5 0.0
04/01:00pm 13.1 8.3 4.8 57 3.8 SSW 19 26 10 14 1024.8 1024.8 0.0
04/12:30pm 12.8 8.4 4.8 58 3.7 SW 17 24 9 13 1025.2 1025.2 0.0
04/12:00pm 12.4 7.7 5.1 61 3.3 SW 19 24 10 13 1025.6 1025.6 0.0
04/11:30am 12.2 8.5 4.7 60 3.4 SSW 13 20 7 11 1025.9 1025.9 0.0
04/11:00am 11.8 8.0 4.1 59 3.4 SSW 13 20 7 11 1026.1 1026.1 0.0
04/10:30am 11.7 8.2 3.7 58 3.6 SW 11 17 6 9 1026.1 1026.1 0.0
04/10:00am 11.7 9.1 4.0 59 3.4 SSE 7 15 4 8 1026.0 1026.0 0.0
04/09:30am 11.0 8.1 4.9 66 2.8 SW 9 17 5 9 1026.0 1026.0 0.0
04/09:00am 10.2 7.4 5.2 71 2.3 WSW 9 13 5 7 1026.0 1026.0 0.0
04/08:30am 8.9 6.2 5.5 79 1.5 W 9 11 5 6 1026.0 1026.0 0.0
04/08:00am 7.5 5.2 5.6 88 0.8 W 7 11 4 6 1025.8 1025.8 0.0
04/07:30am 5.2 1.7 3.5 89 0.7 WNW 11 11 6 6 1025.6 1025.6 0.0
04/07:00am 5.4 2.3 3.4 87 0.8 W 9 13 5 7 1025.3 1025.3 0.0
04/06:30am 5.5 2.3 3.2 85 1.0 W 9 13 5 7 1025.0 1025.0 0.0
04/06:00am 6.4 3.0 4.1 85 1.0 WSW 11 13 6 7 1024.9 1024.9 0.0
04/05:30am 6.7 3.7 4.0 83 1.2 WSW 9 13 5 7 1024.7 1024.7 0.0
04/05:00am 7.1 3.7 4.1 81 1.3 WSW 11 13 6 7 1024.3 1024.3 0.0
04/04:30am 7.9 5.0 4.5 79 1.5 WSW 9 13 5 7 1024.1 1024.1 0.0
04/04:00am 7.8 4.5 4.7 81 1.4 WSW 11 13 6 7 1024.0 1024.0 0.0
04/03:30am 7.8 4.9 4.7 81 1.4 WSW 9 11 5 6 1024.0 1024.0 0.0
04/03:00am 7.2 4.7 4.5 83 1.2 WNW 7 11 4 6 1024.0 1024.0 0.0
04/02:30am 7.0 3.9 3.8 80 1.4 W 9 11 5 6 1024.0 1024.0 0.0
04/02:00am 7.2 4.1 3.6 78 1.5 W 9 13 5 7 1024.2 1024.2 0.0
04/01:30am 7.2 4.4 3.4 77 1.6 WSW 7 11 4 6 1024.1 1024.1 0.0
04/01:00am 7.4 4.3 3.5 76 1.6 WSW 9 11 5 6 1024.2 1024.2 0.0
04/12:30am 7.5 4.4 3.6 76 1.7 SW 9 13 5 7 1024.1 1024.1 0.0
04/12:00am 8.8 5.1 4.4 74 1.9 SW 13 19 7 10 1023.9 1023.9 0.0
 
Date/Time
EST
Tmp

°C
App
Tmp
°C
Dew
Point
°C
Rel
Hum
%
Delta-T

°C
Wind Press
QNH
hPa
Press
MSL
hPa
Rain
since
9 am
mm
Dir
 
Spd
km/h
Gust
km/h
Spd
kts
Gust
kts
03/11:30pm 9.4 5.7 4.6 72 2.1 SW 13 19 7 10 1023.8 1023.8 0.0
03/11:00pm 9.6 6.0 5.0 73 2.1 SW 13 19 7 10 1023.8 1023.8 0.0
03/10:30pm 10.0 6.6 6.0 76 1.8 SW 13 17 7 9 1023.5 1023.5 0.0
03/10:00pm 10.1 7.2 6.6 79 1.6 SW 11 13 6 7 1023.4 1023.4 0.0
03/09:30pm 9.9 7.0 6.4 79 1.6 SW 11 15 6 8 1023.1 1023.1 0.0
03/09:00pm 9.9 6.6 6.2 78 1.7 SW 13 17 7 9 1022.6 1022.6 0.0
03/08:30pm 10.2 6.9 6.5 78 1.7 SW 13 17 7 9 1022.4 1022.4 0.0
03/08:00pm 10.2 7.3 6.7 79 1.6 SSW 11 15 6 8 1022.3 1022.3 0.0
03/07:30pm 10.2 6.9 6.5 78 1.7 SSW 13 19 7 10 1021.8 1021.8 0.0
03/07:00pm 10.4 6.7 6.5 77 1.8 SSW 15 20 8 11 1021.4 1021.4 0.0
03/06:30pm 10.5 6.8 6.3 75 2.0 SSW 15 20 8 11 1020.9 1020.9 0.0
03/06:00pm 11.2 6.8 6.5 73 2.2 S 19 24 10 13 1020.6 1020.6 0.0
03/05:30pm 11.5 6.9 6.4 71 2.4 SSW 20 28 11 15 1020.0 1020.0 0.0
03/05:00pm 12.0 5.9 6.7 70 2.5 SSW 28 41 15 22 1019.4 1019.4 0.0
03/04:30pm 12.4 6.5 7.7 73 2.3 S 28 37 15 20 1018.7 1018.7 0.0
03/04:00pm 13.5 7.6 7.7 68 2.8 S 28 43 15 23 1018.4 1018.4 0.0
03/03:30pm 13.8 8.4 8.0 68 2.9 S 26 37 14 20 1017.9 1017.9 0.0
03/03:00pm 13.4 6.9 8.3 71 2.5 S 32 46 17 25 1017.5 1017.5 0.0
03/02:30pm 13.8 7.4 8.4 70 2.7 S 32 41 17 22 1017.0 1017.0 0.0
03/02:00pm 14.1 8.5 8.7 70 2.7 S 28 43 15 23 1016.7 1016.7 0.0
03/01:30pm 14.1 8.6 9.3 73 2.5 S 28 41 15 22 1016.5 1016.5 0.0
03/01:00pm 13.2 8.2 9.6 79 1.8 S 26 37 14 20 1016.5 1016.5 0.0
03/12:30pm 13.1 9.3 9.9 81 1.6 S 20 24 11 13 1016.3 1016.3 0.0
03/12:00pm 13.1 9.1 10.3 83 1.4 S 22 33 12 18 1016.1 1016.1 0.0
03/11:32am 12.7 9.1 10.4 86 1.2 S 20 32 11 17 1015.9 1015.9 0.0
03/11:30am 12.6 8.9 10.3 86 1.2 S 20 32 11 17 1015.9 1015.9 0.0
03/11:22am 12.6 8.9 10.3 86 1.2 S 20 32 11 17 1015.8 1015.8 0.0
03/11:00am 12.6 8.5 10.1 85 1.3 SSW 22 30 12 16 1015.5 1015.5 0.0
03/10:30am 12.6 8.1 10.0 84 1.3 SSW 24 33 13 18 1015.0 1015.0 0.0
03/10:00am 13.0 9.3 10.0 82 1.5 SSW 20 28 11 15 1014.5 1014.5 0.0
03/09:30am 12.9 8.3 9.7 81 1.6 SSW 24 32 13 17 1013.8 1013.8 0.0
03/09:00am 12.9 9.8 10.4 85 1.3 SSW 17 24 9 13 1013.1 1013.1 7.0
03/08:30am 12.7 10.4 10.6 87 1.1 SSW 13 19 7 10 1012.5 1012.5 7.0
03/08:00am 12.0 9.5 9.7 86 1.2 SSW 13 17 7 9 1012.0 1012.0 7.0
03/07:30am 11.5 9.6 9.1 85 1.2 SSW 9 11 5 6 1011.3 1011.4 7.0
03/07:00am 11.6 8.0 8.3 80 1.6 S 17 22 9 12 1010.5 1010.6 7.0
03/06:30am 11.4 8.5 9.8 90 0.8 S 15 20 8 11 1009.8 1009.9 7.0
03/06:00am 11.3 8.9 10.2 93 0.6 SSW 13 19 7 10 1009.4 1009.5 7.0
03/05:30am 11.0 8.9 9.9 93 0.6 SW 11 15 6 8 1009.0 1009.1 7.0
03/05:00am 10.8 10.4 9.6 92 0.6 WSW 2 7 1 4 1008.9 1009.0 6.8
03/04:30am 11.0 9.3 9.8 92 0.6 W 9 13 5 7 1008.5 1008.6 6.8
03/04:00am 11.1 9.3 9.5 90 0.8 SW 9 13 5 7 1008.1 1008.2 6.8
03/03:30am 10.9 9.1 9.5 91 0.7 S 9 15 5 8 1007.8 1007.8 6.8
03/03:00am 10.8 8.7 9.7 93 0.6 S 11 13 6 7 1007.6 1007.6 6.8
03/02:30am 10.7 8.9 9.5 92 0.6 SE 9 13 5 7 1007.6 1007.6 6.8
03/02:00am 10.7 9.3 9.5 92 0.6 SE 7 9 4 5 1007.6 1007.6 6.8
03/01:30am 10.8 10.0 9.6 92 0.6 ESE 4 6 2 3 1007.5 1007.5 6.8
03/01:00am 10.7 9.5 9.6 93 0.6 ESE 6 7 3 4 1007.5 1007.5 6.8
03/12:30am 10.5 8.7 9.4 93 0.5 ESE 9 9 5 5 1007.5 1007.5 6.8
03/12:00am 10.6 9.4 9.5 93 0.6 ESE 6 7 3 4 1007.4 1007.4 6.8
 
Date/Time
EST
Tmp

°C
App
Tmp
°C
Dew
Point
°C
Rel
Hum
%
Delta-T

°C
Wind Press
QNH
hPa
Press
MSL
hPa
Rain
since
9 am
mm
Dir
 
Spd
km/h
Gust
km/h
Spd
kts
Gust
kts
02/11:30pm 10.7 9.6 9.8 94 0.5 ESE 6 7 3 4 1007.5 1007.5 6.8
02/11:00pm 10.8 9.1 9.9 94 0.5 E 9 11 5 6 1007.5 1007.5 6.8
02/10:30pm 10.8 9.1 10.0 95 0.4 ESE 9 13 5 7 1007.5 1007.5 6.8
02/10:00pm 10.8 9.5 10.0 95 0.4 ESE 7 9 4 5 1007.9 1007.9 6.8
02/09:30pm 10.9 9.6 10.0 94 0.5 ESE 7 9 4 5 1008.1 1008.2 6.8
02/09:00pm 11.1 10.1 10.2 94 0.5 SE 6 7 3 4 1008.2 1008.3 6.6
02/08:30pm 11.4 10.4 10.3 93 0.6 SE 6 7 3 4 1008.5 1008.6 6.2
02/08:00pm 11.6 10.4 10.3 92 0.7 SE 7 9 4 5 1008.4 1008.5 5.8
02/07:30pm 11.7 10.4 10.1 90 0.8 N 7 9 4 5 1008.4 1008.5 5.0
02/07:10pm 11.7 11.3 9.9 89 0.9 N 2 9 1 5 1008.3 1008.4 4.4
02/07:00pm 11.7 11.7 9.8 88 1.0 CALM 0 0 0 0 1008.3 1008.4 4.2
02/06:53pm 11.7 11.7 9.8 88 1.0 CALM 0 0 0 0 1008.3 1008.4 3.8
02/06:44pm 11.8 11.8 9.7 87 1.1 CALM 0 0 0 0 1008.3 1008.4 3.4
02/06:30pm 12.2 12.1 9.6 84 1.3 CALM 0 0 0 0 1008.1 1008.2 2.6
02/06:11pm 12.3 12.2 9.3 82 1.5 CALM 0 0 0 0 1008.1 1008.2 1.6
02/06:00pm 12.6 12.4 8.9 78 1.9 CALM 0 6 0 3 1007.9 1007.9 1.2
02/05:30pm 13.9 12.1 8.1 68 2.9 N 7 13 4 7 1007.6 1007.6 0.2
02/05:00pm 15.6 12.7 6.6 55 4.4 NNE 11 20 6 11 1007.1 1007.1 0.0
02/04:30pm 16.7 13.2 5.6 48 5.4 NE 13 19 7 10 1006.6 1006.6 0.0
02/04:00pm 16.8 12.5 5.1 46 5.6 NE 17 24 9 13 1006.5 1006.5 0.0
02/03:30pm 16.8 12.4 4.8 45 5.7 NE 17 24 9 13 1006.6 1006.6 0.0
02/03:00pm 16.9 12.5 4.9 45 5.7 NNE 17 24 9 13 1006.8 1006.8 0.0
02/02:30pm 16.8 12.4 4.8 45 5.7 N 17 22 9 12 1007.0 1007.0 0.0
02/02:00pm 17.4 12.6 4.4 42 6.2 N 19 32 10 17 1007.5 1007.5 0.0
02/01:30pm 17.5 11.2 3.8 40 6.4 N 26 41 14 22 1008.1 1008.2 0.0
02/01:00pm 18.0 12.5 4.2 40 6.5 N 22 35 12 19 1008.8 1008.9 0.0
02/12:30pm 17.9 12.3 5.2 43 6.1 NNE 24 37 13 20 1009.5 1009.6 0.0
02/12:00pm 16.7 10.4 5.9 49 5.2 NNE 28 37 15 20 1010.1 1010.2 0.0
02/11:30am 16.2 9.5 5.8 50 5.0 NNE 30 44 16 24 1010.4 1010.5 0.0
02/11:15am 16.1 9.8 5.7 50 5.0 N 28 48 15 26 1010.6 1010.7 0.0
02/11:00am 15.7 10.7 6.4 54 4.5 N 22 35 12 19 1010.9 1011.0 0.0
02/10:30am 14.5 9.4 5.8 56 4.1 NNE 22 35 12 19 1011.0 1011.1 0.0
02/10:00am 13.7 8.9 5.8 59 3.7 NNE 20 32 11 17 1011.7 1011.7 0.0
02/09:30am 12.8 6.8 5.5 61 3.4 N 26 39 14 21 1012.0 1012.0 0.0
02/09:00am 12.3 5.9 5.2 62 3.3 NNE 28 41 15 22 1012.2 1012.2 0.0
02/08:30am 12.5 5.3 5.0 60 3.5 N 32 46 17 25 1012.3 1012.3 0.0
02/08:00am 11.7 6.4 5.1 64 3.0 NNE 22 35 12 19 1012.3 1012.3 0.0
02/07:30am 11.0 6.7 5.1 67 2.7 NNE 17 26 9 14 1012.3 1012.3 0.0
02/07:00am 10.7 5.7 4.8 67 2.7 NNE 20 33 11 18 1012.4 1012.4 0.0
02/06:30am 10.7 6.3 4.8 67 2.7 NNE 17 24 9 13 1012.2 1012.2 0.0
02/06:00am 11.2 5.9 4.9 65 2.9 NNE 22 32 12 17 1012.2 1012.2 0.0
02/05:30am 11.3 6.6 5.0 65 2.9 N 19 32 10 17 1012.4 1012.4 0.0
02/05:00am 11.2 6.3 4.9 65 2.9 NNE 20 33 11 18 1012.2 1012.2 0.0
02/04:30am 11.0 6.1 4.9 66 2.8 N 20 32 11 17 1012.4 1012.4 0.0
02/04:00am 10.9 6.1 4.8 66 2.8 N 19 35 10 19 1012.4 1012.4 0.0
02/03:30am 10.6 5.8 4.7 67 2.7 N 19 30 10 16 1012.4 1012.4 0.0
02/03:00am 10.6 5.6 4.7 67 2.7 N 20 28 11 15 1012.6 1012.6 0.0
02/02:30am 10.7 5.7 4.6 66 2.7 N 20 30 11 16 1012.9 1012.9 0.0
02/02:00am 10.5 5.5 4.4 66 2.7 NNE 20 32 11 17 1013.1 1013.1 0.0
02/01:30am 10.5 5.7 4.6 67 2.6 N 19 33 10 18 1013.3 1013.3 0.0
02/01:00am 10.1 6.0 4.3 67 2.6 N 15 22 8 12 1013.4 1013.4 0.0
02/12:30am 10.2 6.1 4.6 68 2.5 N 15 22 8 12 1013.5 1013.5 0.0
02/12:00am 9.9 5.4 4.1 67 2.6 NNE 17 22 9 12 1013.5 1013.5 0.0
 
Date/Time
EST
Tmp

°C
App
Tmp
°C
Dew
Point
°C
Rel
Hum
%
Delta-T

°C
Wind Press
QNH
hPa
Press
MSL
hPa
Rain
since
9 am
mm
Dir
 
Spd
km/h
Gust
km/h
Spd
kts
Gust
kts
01/11:30pm 10.0 5.1 4.2 67 2.6 NNE 19 24 10 13 1013.7 1013.7 0.0
01/11:00pm 10.1 5.6 4.3 67 2.6 NNE 17 24 9 13 1013.9 1013.9 0.0
01/10:30pm 10.2 5.8 4.6 68 2.5 NNE 17 24 9 13 1014.0 1014.0 0.0
01/10:00pm 9.9 6.2 4.5 69 2.4 NNE 13 19 7 10 1014.2 1014.2 0.0
01/09:30pm 10.1 6.5 5.1 71 2.3 N 13 17 7 9 1014.3 1014.3 0.0
01/09:00pm 7.7 4.8 4.5 80 1.4 NNW 9 13 5 7 1014.2 1014.2 0.0

Latest Capital City Observations: Canberra | Sydney | Melbourne | Brisbane | Adelaide | Perth | Hobart | Darwin

Other Formats:

Comma delimited format used in spreadsheet applications
http://www.bom.gov.au/fwo/IDV60901/IDV60901.94865.axf

JavaScript Object Notation format (JSON) in row-major order
http://www.bom.gov.au/fwo/IDV60901/IDV60901.94865.json